Time;durP1;ratioP1;P1;durP2;ratioP2;P2;SDS_P1;SDS_P2;PMS_P1;PMS_P2;Temp;Humidity;BMP_temperature;BMP_pressure;BME280_temperature;BME280_humidity;BME280_pressure;Samples;Min_cycle;Max_cycle;Signal;HPM_P1;HPM_P2
2022/07/10 00:03:20;;;;;;;;;;;15.50;1.00;;;;;;10456728;28;84100;-49
2022/07/10 00:08:21;;;;;;;;;;;15.50;1.00;;;;;;10453353;27;84806;-46
2022/07/10 00:13:21;;;;;;;;;;;15.50;1.00;;;;;;10452959;27;84744;-48
2022/07/10 00:18:22;;;;;;;;;;;15.40;49.60;;;;;;10451695;28;84640;-48
2022/07/10 00:23:22;;;;;;;;;;;15.40;99.90;;;;;;10453240;28;84921;-48
2022/07/10 00:28:24;;;;;;;;;;;15.20;99.90;;;;;;10463774;27;85336;-49
2022/07/10 00:33:25;;;;;;;;;;;15.10;99.90;;;;;;10459657;28;84002;-47
2022/07/10 00:38:25;;;;;;;;;;;15.00;99.90;;;;;;10451537;27;84116;-47
2022/07/10 00:43:26;;;;;;;;;;;14.90;1.00;;;;;;10483248;27;84102;-47
2022/07/10 00:48:26;;;;;;;;;;;14.90;1.00;;;;;;10494017;27;84884;-48
2022/07/10 00:53:27;;;;;;;;;;;15.00;1.00;;;;;;10493785;27;84911;-50
2022/07/10 00:58:27;;;;;;;;;;;15.00;99.90;;;;;;10491425;27;84779;-48
2022/07/10 01:03:28;;;;;;;;;;;15.10;99.90;;;;;;10493447;27;84965;-49
2022/07/10 01:08:28;;;;;;;;;;;15.10;99.90;;;;;;10490266;27;84946;-48
2022/07/10 01:13:29;;;;;;;;;;;15.10;99.90;;;;;;10492372;27;84889;-46
2022/07/10 01:18:30;;;;;;;;;;;15.00;99.90;;;;;;10492295;27;84884;-48
2022/07/10 01:23:30;;;;;;;;;;;15.10;99.90;;;;;;10457285;27;84033;-49
2022/07/10 01:28:31;;;;;;;;;;;15.00;99.90;;;;;;10449415;28;84925;-46
2022/07/10 01:33:32;;;;;;;;;;;15.00;99.90;;;;;;10448107;28;85303;-48
2022/07/10 01:38:32;;;;;;;;;;;15.00;99.90;;;;;;10450639;27;84933;-46
2022/07/10 01:43:32;;;;;;;;;;;14.90;99.90;;;;;;10449927;28;84187;-44
2022/07/10 01:48:33;;;;;;;;;;;14.90;99.90;;;;;;10450588;27;85285;-44
2022/07/10 01:53:34;;;;;;;;;;;14.90;1.00;;;;;;10458790;27;85104;-47
2022/07/10 01:58:35;;;;;;;;;;;14.90;99.90;;;;;;10456534;28;84018;-48
2022/07/10 02:08:55;;;;;;;;;;;14.80;1.00;;;;;;10457016;27;84129;-50
2022/07/10 02:13:55;;;;;;;;;;;14.80;1.00;;;;;;10455512;28;84003;-51
2022/07/10 02:18:56;;;;;;;;;;;14.90;1.00;;;;;;10456206;28;84055;-49
2022/07/10 02:23:56;;;;;;;;;;;14.90;99.90;;;;;;10454155;28;85113;-49
2022/07/10 02:28:57;;;;;;;;;;;15.00;99.90;;;;;;10492576;27;84233;-46
2022/07/10 02:33:57;;;;;;;;;;;14.90;1.00;;;;;;10499677;27;84027;-45
2022/07/10 02:38:58;;;;;;;;;;;15.00;1.00;;;;;;10496639;27;84907;-45
2022/07/10 02:43:58;;;;;;;;;;;14.90;1.00;;;;;;10489606;27;84883;-50
2022/07/10 02:48:59;;;;;;;;;;;14.80;1.00;;;;;;10494172;27;84849;-46
2022/07/10 02:54:00;;;;;;;;;;;14.80;1.00;;;;;;10495948;27;84560;-49
2022/07/10 02:59:00;;;;;;;;;;;14.80;1.00;;;;;;10494204;27;86800;-46
2022/07/10 03:04:01;;;;;;;;;;;14.80;1.00;;;;;;10494791;27;84194;-48
2022/07/10 03:09:02;;;;;;;;;;;14.70;1.00;;;;;;10493929;27;84981;-48
2022/07/10 03:14:02;;;;;;;;;;;14.80;1.00;;;;;;10495593;27;84056;-49
2022/07/10 03:19:03;;;;;;;;;;;14.70;1.00;;;;;;10493945;27;85226;-47
2022/07/10 03:24:03;;;;;;;;;;;14.70;1.00;;;;;;10457762;27;84149;-52
2022/07/10 03:29:04;;;;;;;;;;;14.70;1.00;;;;;;10460417;27;84118;-48
2022/07/10 03:34:04;;;;;;;;;;;14.70;1.00;;;;;;10489342;27;84465;-48
2022/07/10 03:39:05;;;;;;;;;;;14.60;1.00;;;;;;10493338;27;84959;-50
2022/07/10 03:44:05;;;;;;;;;;;14.60;1.00;;;;;;10486716;27;84908;-50
2022/07/10 03:49:06;;;;;;;;;;;14.50;1.00;;;;;;10493687;27;84126;-49
2022/07/10 03:54:07;;;;;;;;;;;14.50;1.00;;;;;;10489718;27;84088;-49
2022/07/10 03:59:07;;;;;;;;;;;14.60;1.00;;;;;;10489838;27;84289;-47
2022/07/10 04:04:08;;;;;;;;;;;14.50;1.00;;;;;;10491308;27;84956;-48
2022/07/10 04:09:08;;;;;;;;;;;14.60;1.00;;;;;;10488638;27;84224;-45
2022/07/10 04:14:09;;;;;;;;;;;14.60;1.00;;;;;;10473209;27;84877;-51
2022/07/10 04:19:09;;;;;;;;;;;14.60;1.00;;;;;;10488406;27;84868;-46
2022/07/10 04:24:10;;;;;;;;;;;14.50;1.00;;;;;;10492659;27;84206;-47
2022/07/10 04:29:10;;;;;;;;;;;14.60;1.00;;;;;;10491128;27;84909;-46
2022/07/10 04:34:11;;;;;;;;;;;14.60;1.00;;;;;;10491119;27;84759;-50
2022/07/10 04:39:11;;;;;;;;;;;14.60;1.00;;;;;;10492322;27;85053;-48
2022/07/10 04:44:12;;;;;;;;;;;14.60;1.00;;;;;;10490959;27;84511;-46
2022/07/10 04:49:12;;;;;;;;;;;14.60;1.00;;;;;;10497905;22;85196;-48
2022/07/10 04:54:13;;;;;;;;;;;14.60;1.00;;;;;;10450612;28;89219;-54
2022/07/10 04:59:14;;;;;;;;;;;14.70;1.00;;;;;;10445810;28;84208;-49
2022/07/10 05:04:14;;;;;;;;;;;14.80;1.00;;;;;;10425431;28;84843;-47
2022/07/10 05:09:15;;;;;;;;;;;14.80;1.00;;;;;;10427617;28;84896;-50
2022/07/10 05:14:16;;;;;;;;;;;14.80;1.00;;;;;;10425416;28;84881;-50
2022/07/10 05:19:16;;;;;;;;;;;14.90;1.00;;;;;;10408789;28;84118;-49
2022/07/10 05:24:17;;;;;;;;;;;15.00;1.00;;;;;;10407459;28;84910;-47
2022/07/10 05:29:17;;;;;;;;;;;15.00;1.00;;;;;;10388255;28;84205;-49
2022/07/10 05:34:18;;;;;;;;;;;15.10;1.00;;;;;;10408543;28;85285;-47
2022/07/10 05:39:18;;;;;;;;;;;15.00;99.90;;;;;;10403971;28;84727;-52
2022/07/10 05:44:22;;;;;;;;;;;14.90;99.90;;;;;;10388129;28;84903;-49
2022/07/10 05:49:22;;;;;;;;;;;14.80;99.90;;;;;;10383108;28;84990;-51
2022/07/10 05:54:23;;;;;;;;;;;14.80;99.90;;;;;;10399172;28;86229;-50
2022/07/10 05:59:23;;;;;;;;;;;15.00;99.90;;;;;;10403112;28;84847;-49
2022/07/10 06:04:24;;;;;;;;;;;15.30;99.90;;;;;;10387855;28;85395;-51
2022/07/10 06:09:25;;;;;;;;;;;15.70;42.30;;;;;;10374871;28;84972;-49
2022/07/10 06:14:25;;;;;;;;;;;15.60;1.00;;;;;;10384927;28;85289;-49
2022/07/10 06:19:26;;;;;;;;;;;15.70;1.00;;;;;;10393650;28;84183;-47
2022/07/10 06:24:26;;;;;;;;;;;15.90;1.00;;;;;;10399801;28;84223;-55
2022/07/10 06:29:27;;;;;;;;;;;16.10;1.00;;;;;;10394923;28;84881;-61
2022/07/10 06:34:27;;;;;;;;;;;16.40;1.00;;;;;;10377253;28;84204;-54
2022/07/10 06:39:31;;;;;;;;;;;16.70;99.90;;;;;;10408773;28;84957;-53
2022/07/10 06:44:31;;;;;;;;;;;16.90;99.90;;;;;;10409958;28;84156;-48
2022/07/10 06:49:32;;;;;;;;;;;17.20;6.30;;;;;;10406520;28;84950;-45
2022/07/10 06:54:33;;;;;;;;;;;17.50;1.00;;;;;;10401977;28;84318;-47
2022/07/10 06:59:33;;;;;;;;;;;17.80;99.90;;;;;;10409918;28;84398;-43
2022/07/10 07:04:34;;;;;;;;;;;17.60;99.90;;;;;;10413130;28;84673;-48
2022/07/10 07:09:34;;;;;;;;;;;17.30;1.00;;;;;;10409783;28;84686;-49
2022/07/10 07:14:35;;;;;;;;;;;17.30;1.00;;;;;;10394133;28;84947;-46
2022/07/10 07:24:55;;;;;;;;;;;16.80;1.00;;;;;;10356930;28;84139;-46
2022/07/10 07:29:55;;;;;;;;;;;16.50;1.00;;;;;;10370235;28;84977;-49
2022/07/10 07:34:56;;;;;;;;;;;15.90;99.90;;;;;;10371028;28;85170;-47
2022/07/10 07:39:56;;;;;;;;;;;16.00;1.00;;;;;;10371059;28;84137;-47
2022/07/10 07:44:57;;;;;;;;;;;15.90;1.00;;;;;;10370140;28;85035;-45
2022/07/10 07:50:02;;;;;;;;;;;16.20;1.00;;;;;;10350352;28;84948;-46
2022/07/10 07:55:03;;;;;;;;;;;16.40;99.90;;;;;;10370304;28;84809;-48
2022/07/10 08:00:05;;;;;;;;;;;16.60;99.90;;;;;;10369003;28;84127;-49
2022/07/10 08:05:12;;;;;;;;;;;16.70;99.90;;;;;;10368023;28;84652;-48
2022/07/10 08:10:14;;;;;;;;;;;16.70;99.90;;;;;;10377179;28;84757;-50
2022/07/10 08:15:16;;;;;;;;;;;16.70;99.90;;;;;;10410326;28;85272;-46
2022/07/10 08:20:17;;;;;;;;;;;16.90;99.90;;;;;;10410906;28;85074;-47
2022/07/10 08:25:17;;;;;;;;;;;16.80;99.90;;;;;;10408785;28;84695;-46
2022/07/10 08:30:18;;;;;;;;;;;17.00;99.90;;;;;;10350146;28;84486;-48
2022/07/10 08:35:18;;;;;;;;;;;17.00;1.00;;;;;;10368719;28;84192;-47
2022/07/10 08:40:21;;;;;;;;;;;16.90;1.00;;;;;;10368178;28;84066;-49
2022/07/10 08:45:21;;;;;;;;;;;16.80;1.00;;;;;;10350731;28;85851;-47
2022/07/10 08:50:23;;;;;;;;;;;16.70;78.60;;;;;;10367493;28;84257;-48
2022/07/10 08:55:25;;;;;;;;;;;16.50;99.90;;;;;;10367558;28;84231;-48
2022/07/10 09:00:26;;;;;;;;;;;16.60;99.90;;;;;;10373630;28;85480;-49
2022/07/10 09:05:26;;;;;;;;;;;16.60;99.90;;;;;;10374682;28;84961;-47
2022/07/10 09:10:28;;;;;;;;;;;16.70;99.90;;;;;;10369096;28;84215;-49
2022/07/10 09:15:31;;;;;;;;;;;16.80;99.90;;;;;;10367644;28;84279;-48
2022/07/10 09:20:36;;;;;;;;;;;17.10;99.90;;;;;;10384045;28;84270;-47
2022/07/10 09:25:36;;;;;;;;;;;17.30;99.90;;;;;;10408171;28;84088;-46
2022/07/10 09:30:41;;;;;;;;;;;17.40;99.90;;;;;;10385259;28;84279;-50
2022/07/10 09:36:07;;;;;;;;;;;17.20;99.90;;;;;;10366682;28;84110;-52
2022/07/10 09:41:21;;;;;;;;;;;17.00;1.00;;;;;;10366526;28;84262;-44
2022/07/10 09:46:32;;;;;;;;;;;17.20;1.00;;;;;;10352140;28;85069;-47
2022/07/10 09:51:34;;;;;;;;;;;16.90;1.00;;;;;;10406588;28;84811;-49
2022/07/10 09:57:01;;;;;;;;;;;16.60;1.00;;;;;;10407029;28;84886;-51
2022/07/10 10:02:01;;;;;;;;;;;16.60;1.00;;;;;;10401881;28;85187;-46
2022/07/10 10:07:02;;;;;;;;;;;16.80;1.00;;;;;;10405572;28;84131;-47
2022/07/10 10:12:15;;;;;;;;;;;16.70;1.00;;;;;;10410826;28;84450;-50
2022/07/10 10:17:17;;;;;;;;;;;16.90;1.00;;;;;;10413284;28;84762;-48
2022/07/10 10:22:18;;;;;;;;;;;17.00;1.00;;;;;;10360052;28;85728;-47
2022/07/10 10:27:20;;;;;;;;;;;17.30;1.00;;;;;;10371875;28;85100;-51
2022/07/10 10:32:21;;;;;;;;;;;17.30;1.00;;;;;;10372254;28;84975;-51
2022/07/10 10:37:27;;;;;;;;;;;17.60;1.00;;;;;;10372941;28;84885;-49
2022/07/10 10:42:35;;;;;;;;;;;17.80;1.00;;;;;;10371593;28;84886;-46
2022/07/10 10:53:01;;;;;;;;;;;17.80;1.00;;;;;;10393334;28;84998;-49
2022/07/10 10:58:24;;;;;;;;;;;17.70;1.00;;;;;;10369411;28;84201;-48
2022/07/10 11:03:24;;;;;;;;;;;17.30;1.00;;;;;;10331570;28;85534;-51
2022/07/10 11:08:37;;;;;;;;;;;17.60;39.50;;;;;;10332735;28;84268;-52
2022/07/10 11:13:38;;;;;;;;;;;17.80;1.00;;;;;;10331230;28;84447;-47
2022/07/10 11:18:39;;;;;;;;;;;18.40;1.00;;;;;;10368451;28;84742;-53
2022/07/10 11:23:42;;;;;;;;;;;18.60;1.00;;;;;;10371141;28;85878;-49
2022/07/10 11:28:43;;;;;;;;;;;18.50;1.00;;;;;;10363439;28;84315;-47
2022/07/10 11:33:46;;;;;;;;;;;18.60;1.00;;;;;;10330779;28;84791;-49
2022/07/10 11:38:46;;;;;;;;;;;18.60;1.00;;;;;;10330096;28;84946;-52
2022/07/10 11:43:51;;;;;;;;;;;18.90;1.00;;;;;;10331498;28;84180;-48
2022/07/10 11:48:56;;;;;;;;;;;19.20;1.00;;;;;;10368901;28;84991;-47
2022/07/10 11:54:04;;;;;;;;;;;19.00;1.00;;;;;;10454662;27;84367;-51
2022/07/10 11:59:06;;;;;;;;;;;18.90;1.00;;;;;;10446759;27;84786;-48
2022/07/10 12:04:08;;;;;;;;;;;18.90;1.00;;;;;;10413656;28;84884;-47
2022/07/10 12:09:13;;;;;;;;;;;18.60;1.00;;;;;;10410953;28;84217;-48
2022/07/10 12:14:14;;;;;;;;;;;18.50;1.00;;;;;;10430505;28;86088;-49
2022/07/10 12:19:16;;;;;;;;;;;18.80;1.00;;;;;;10455622;27;84041;-53
2022/07/10 12:24:17;;;;;;;;;;;19.40;1.00;;;;;;10453617;28;85984;-49
2022/07/10 12:29:18;;;;;;;;;;;19.20;1.00;;;;;;10452311;27;84933;-51
2022/07/10 12:34:18;;;;;;;;;;;19.10;1.00;;;;;;10450917;28;86452;-50
2022/07/10 12:39:22;;;;;;;;;;;19.40;1.00;;;;;;10453892;28;84583;-48
2022/07/10 12:44:29;;;;;;;;;;;19.50;1.00;;;;;;10450388;28;84090;-50
2022/07/10 12:49:30;;;;;;;;;;;19.50;1.00;;;;;;10452256;28;84207;-51
2022/07/10 12:54:34;;;;;;;;;;;19.40;1.00;;;;;;10453454;28;84087;-47
2022/07/10 12:59:35;;;;;;;;;;;19.70;1.00;;;;;;10452580;27;84758;-51
2022/07/10 13:04:37;;;;;;;;;;;20.00;99.90;;;;;;10419584;28;84725;-47
2022/07/10 13:09:39;;;;;;;;;;;20.10;99.90;;;;;;10409995;28;84952;-47
2022/07/10 13:14:39;;;;;;;;;;;19.90;99.90;;;;;;10410768;28;84927;-54
2022/07/10 13:19:40;;;;;;;;;;;19.60;99.90;;;;;;10411334;28;84967;-48
2022/07/10 13:24:40;;;;;;;;;;;19.40;1.00;;;;;;10445124;28;86058;-47
2022/07/10 13:29:41;;;;;;;;;;;19.20;1.00;;;;;;10452939;27;84150;-50
2022/07/10 13:34:41;;;;;;;;;;;19.10;1.00;;;;;;10453628;28;84280;-49
2022/07/10 13:39:42;;;;;;;;;;;19.30;1.00;;;;;;10430033;28;85079;-49
2022/07/10 13:44:42;;;;;;;;;;;19.50;1.00;;;;;;10411540;28;84224;-49
2022/07/10 13:49:43;;;;;;;;;;;19.70;1.00;;;;;;10415439;28;84983;-48
2022/07/10 13:54:44;;;;;;;;;;;19.50;1.00;;;;;;10434043;28;84971;-48
2022/07/10 13:59:45;;;;;;;;;;;19.40;1.00;;;;;;10459028;28;84936;-52
2022/07/10 14:04:46;;;;;;;;;;;19.40;1.00;;;;;;10459572;28;84948;-46
2022/07/10 14:09:46;;;;;;;;;;;19.30;1.00;;;;;;10456393;27;84927;-49
2022/07/10 14:14:47;;;;;;;;;;;19.50;1.00;;;;;;10458344;28;84947;-46
2022/07/10 14:19:47;;;;;;;;;;;19.60;99.90;;;;;;10457846;27;84198;-44
2022/07/10 14:24:48;;;;;;;;;;;19.80;99.90;;;;;;10457901;28;84876;-46
2022/07/10 14:29:49;;;;;;;;;;;19.80;99.90;;;;;;10457067;27;85076;-50
2022/07/10 14:34:49;;;;;;;;;;;19.70;99.90;;;;;;10458580;28;85048;-46
2022/07/10 14:39:50;;;;;;;;;;;19.30;1.00;;;;;;10457194;28;84189;-48
2022/07/10 14:44:50;;;;;;;;;;;18.90;1.00;;;;;;10429146;28;84976;-48
2022/07/10 14:49:51;;;;;;;;;;;18.50;1.00;;;;;;10414272;28;85158;-48
2022/07/10 14:54:51;;;;;;;;;;;18.40;1.00;;;;;;10413296;28;86921;-47
2022/07/10 14:59:52;;;;;;;;;;;18.50;1.00;;;;;;10414370;27;84238;-47
2022/07/10 15:04:52;;;;;;;;;;;18.40;1.00;;;;;;10415462;28;84429;-49
2022/07/10 15:09:53;;;;;;;;;;;18.40;1.00;;;;;;10415169;28;84105;-51
2022/07/10 15:14:53;;;;;;;;;;;18.00;1.00;;;;;;10414656;28;84202;-51
2022/07/10 15:19:54;;;;;;;;;;;18.00;1.00;;;;;;10447102;28;85015;-44
2022/07/10 15:24:54;;;;;;;;;;;18.10;1.00;;;;;;10456476;28;84945;-49
2022/07/10 15:29:55;;;;;;;;;;;18.50;1.00;;;;;;10453049;27;84885;-46
2022/07/10 15:34:55;;;;;;;;;;;18.70;1.00;;;;;;10413737;28;84000;-45
2022/07/10 15:39:56;;;;;;;;;;;18.40;1.00;;;;;;10413183;28;85109;-46
2022/07/10 15:44:57;;;;;;;;;;;18.20;1.00;;;;;;10414288;28;86154;-43
2022/07/10 15:49:58;;;;;;;;;;;18.10;1.00;;;;;;10413441;28;85077;-44
2022/07/10 15:54:58;;;;;;;;;;;18.10;1.00;;;;;;10412348;28;86991;-43
2022/07/10 15:59:59;;;;;;;;;;;18.20;1.00;;;;;;10412916;28;84794;-49
2022/07/10 16:05:00;;;;;;;;;;;17.90;99.90;;;;;;10418082;28;85107;-49
2022/07/10 16:10:01;;;;;;;;;;;17.70;99.90;;;;;;10444417;27;86793;-48
2022/07/10 16:15:01;;;;;;;;;;;17.60;99.90;;;;;;10459835;27;84293;-57
2022/07/10 16:20:02;;;;;;;;;;;17.50;99.90;;;;;;10456141;27;84254;-47
2022/07/10 16:30:24;;;;;;;;;;;17.50;99.90;;;;;;10456658;28;84256;-49
2022/07/10 16:35:24;;;;;;;;;;;17.60;99.90;;;;;;10452632;27;84230;-52
2022/07/10 16:40:25;;;;;;;;;;;17.70;99.90;;;;;;10443640;27;85394;-57
2022/07/10 16:45:26;;;;;;;;;;;17.70;99.90;;;;;;10451855;27;84869;-55
2022/07/10 16:50:26;;;;;;;;;;;17.90;99.90;;;;;;10491491;22;84692;-54
2022/07/10 16:55:27;;;;;;;;;;;18.10;99.90;;;;;;10523347;27;84116;-57
2022/07/10 17:00:28;;;;;;;;;;;18.20;99.90;;;;;;10511543;27;85045;-51
2022/07/10 17:05:28;;;;;;;;;;;18.30;99.90;;;;;;10492591;27;84079;-62
2022/07/10 17:10:29;;;;;;;;;;;18.60;99.90;;;;;;10488240;27;84580;-56
2022/07/10 17:15:30;;;;;;;;;;;18.70;99.90;;;;;;10485623;27;84330;-60
2022/07/10 17:20:30;;;;;;;;;;;18.70;89.50;;;;;;10485706;27;84913;-60
2022/07/10 17:25:31;;;;;;;;;;;18.60;99.90;;;;;;10485305;27;84925;-60
2022/07/10 17:30:31;;;;;;;;;;;18.80;99.90;;;;;;10488564;27;84207;-63
2022/07/10 17:35:32;;;;;;;;;;;18.80;99.90;;;;;;10485679;27;86075;-56
2022/07/10 17:40:33;;;;;;;;;;;18.70;21.60;;;;;;10489001;27;84787;-61
2022/07/10 17:45:33;;;;;;;;;;;18.60;35.30;;;;;;10490363;27;84579;-53
2022/07/10 17:50:35;;;;;;;;;;;18.40;5.90;;;;;;10486986;27;87086;-58
2022/07/10 17:55:36;;;;;;;;;;;18.40;55.40;;;;;;10486178;27;84842;-55
2022/07/10 18:00:36;;;;;;;;;;;18.40;59.10;;;;;;10489895;27;84348;-53
2022/07/10 18:05:37;;;;;;;;;;;18.40;53.10;;;;;;10485544;27;84256;-53
2022/07/10 18:10:39;;;;;;;;;;;18.40;1.00;;;;;;10489466;27;84967;-56
2022/07/10 18:15:39;;;;;;;;;;;18.20;1.00;;;;;;10477556;27;84326;-52
2022/07/10 18:20:40;;;;;;;;;;;18.20;1.00;;;;;;10480540;27;84777;-47
2022/07/10 18:25:41;;;;;;;;;;;18.30;1.00;;;;;;10479736;27;84972;-51
2022/07/10 18:30:42;;;;;;;;;;;18.30;1.00;;;;;;10483865;27;84221;-48
2022/07/10 18:35:43;;;;;;;;;;;18.20;1.00;;;;;;10470827;27;84158;-44
2022/07/10 18:40:43;;;;;;;;;;;18.30;1.00;;;;;;10492225;27;85841;-46
2022/07/10 18:45:44;;;;;;;;;;;18.30;1.00;;;;;;10494130;27;84891;-49
2022/07/10 18:50:44;;;;;;;;;;;18.40;1.00;;;;;;10474329;27;86074;-45
2022/07/10 18:55:45;;;;;;;;;;;18.30;1.00;;;;;;10490543;27;84979;-47
2022/07/10 19:00:45;;;;;;;;;;;18.20;1.00;;;;;;10494826;27;84329;-48
2022/07/10 19:05:46;;;;;;;;;;;18.20;1.00;;;;;;10496376;27;84845;-52
2022/07/10 19:10:46;;;;;;;;;;;18.10;1.00;;;;;;10494093;27;84265;-45
2022/07/10 19:15:50;;;;;;;;;;;18.20;1.00;;;;;;10499523;27;85349;-47
2022/07/10 19:20:50;;;;;;;;;;;18.20;1.00;;;;;;10496261;27;84343;-52
2022/07/10 19:25:51;;;;;;;;;;;18.30;1.00;;;;;;10500889;27;84030;-48
2022/07/10 19:30:51;;;;;;;;;;;18.20;1.00;;;;;;10497691;27;83993;-49
2022/07/10 19:35:53;;;;;;;;;;;18.10;1.00;;;;;;10502688;27;85002;-47
2022/07/10 19:40:53;;;;;;;;;;;18.00;1.00;;;;;;10499769;27;84222;-46
2022/07/10 19:45:54;;;;;;;;;;;18.00;1.00;;;;;;10512094;27;86489;-50
2022/07/10 19:50:55;;;;;;;;;;;18.00;1.00;;;;;;10506351;27;85820;-47
2022/07/10 19:55:56;;;;;;;;;;;18.00;1.00;;;;;;10515680;27;84133;-48
2022/07/10 20:00:56;;;;;;;;;;;18.00;1.00;;;;;;10512887;27;85296;-50
2022/07/10 20:05:57;;;;;;;;;;;18.00;1.00;;;;;;10513615;27;84879;-47
2022/07/10 20:10:58;;;;;;;;;;;18.00;1.00;;;;;;10494241;27;84156;-48
2022/07/10 20:15:58;;;;;;;;;;;17.90;1.00;;;;;;10494330;27;84988;-49
2022/07/10 20:20:59;;;;;;;;;;;17.90;1.00;;;;;;10493585;27;84491;-49
2022/07/10 20:25:59;;;;;;;;;;;17.90;1.00;;;;;;10493775;27;85790;-53
2022/07/10 20:31:00;;;;;;;;;;;17.90;1.00;;;;;;10494275;27;84814;-47
2022/07/10 20:41:20;;;;;;;;;;;17.90;1.00;;;;;;10494598;27;84911;-47
2022/07/10 20:46:21;;;;;;;;;;;17.90;1.00;;;;;;10494014;27;85014;-50
2022/07/10 20:51:21;;;;;;;;;;;17.80;1.00;;;;;;10493695;27;84135;-49
2022/07/10 20:56:22;;;;;;;;;;;17.60;1.00;;;;;;10492676;27;86185;-44
2022/07/10 21:01:22;;;;;;;;;;;17.60;1.00;;;;;;10494728;27;84131;-47
2022/07/10 21:06:23;;;;;;;;;;;17.60;1.00;;;;;;10494330;27;84895;-51
2022/07/10 21:11:24;;;;;;;;;;;17.70;11.60;;;;;;10492397;27;85033;-49
2022/07/10 21:16:24;;;;;;;;;;;17.70;40.50;;;;;;10495312;27;85020;-52
2022/07/10 21:21:26;;;;;;;;;;;17.70;37.70;;;;;;10476915;27;86290;-48
2022/07/10 21:26:26;;;;;;;;;;;17.70;18.30;;;;;;10494203;27;85234;-50
2022/07/10 21:31:27;;;;;;;;;;;17.70;23.80;;;;;;10491955;27;84371;-49
2022/07/10 21:36:28;;;;;;;;;;;17.70;1.00;;;;;;10492280;27;84346;-47
2022/07/10 21:41:28;;;;;;;;;;;17.80;1.00;;;;;;10492120;27;84182;-48
2022/07/10 21:46:29;;;;;;;;;;;17.80;1.00;;;;;;10490102;27;86145;-50
2022/07/10 21:51:29;;;;;;;;;;;17.80;1.00;;;;;;10490783;27;84209;-47
2022/07/10 21:56:30;;;;;;;;;;;17.80;1.00;;;;;;10491605;27;85020;-46
2022/07/10 22:01:30;;;;;;;;;;;17.90;1.00;;;;;;10489375;27;85996;-53
2022/07/10 22:06:31;;;;;;;;;;;17.80;2.60;;;;;;10490343;27;84939;-48
2022/07/10 22:11:32;;;;;;;;;;;17.80;1.00;;;;;;10493925;27;84100;-44
2022/07/10 22:16:32;;;;;;;;;;;17.80;1.00;;;;;;10497503;27;84946;-47
2022/07/10 22:21:33;;;;;;;;;;;17.70;23.60;;;;;;10498000;27;85188;-50
2022/07/10 22:26:34;;;;;;;;;;;17.70;1.00;;;;;;10498177;27;84278;-45
2022/07/10 22:31:34;;;;;;;;;;;17.70;3.20;;;;;;10498129;27;84881;-47
2022/07/10 22:36:35;;;;;;;;;;;17.70;1.00;;;;;;10498224;27;84520;-45
2022/07/10 22:41:35;;;;;;;;;;;17.60;1.00;;;;;;10496770;27;84858;-48
2022/07/10 22:46:36;;;;;;;;;;;17.60;1.00;;;;;;10497119;27;84872;-48
2022/07/10 22:51:36;;;;;;;;;;;17.70;1.00;;;;;;10511953;22;84224;-45
2022/07/10 22:56:37;;;;;;;;;;;17.70;1.00;;;;;;10497498;27;84933;-45
2022/07/10 23:01:39;;;;;;;;;;;17.70;1.00;;;;;;10521785;27;84894;-44
2022/07/10 23:06:40;;;;;;;;;;;17.80;1.00;;;;;;10521552;27;86938;-45
2022/07/10 23:11:40;;;;;;;;;;;17.60;15.10;;;;;;10536812;27;84106;-45
2022/07/10 23:16:41;;;;;;;;;;;17.60;35.80;;;;;;10538567;27;84951;-46
2022/07/10 23:21:41;;;;;;;;;;;17.60;83.40;;;;;;10533723;27;84810;-47
2022/07/10 23:26:42;;;;;;;;;;;17.60;85.10;;;;;;10539544;27;84144;-46
2022/07/10 23:31:42;;;;;;;;;;;17.60;99.90;;;;;;10539905;27;84147;-45
2022/07/10 23:36:43;;;;;;;;;;;17.60;99.90;;;;;;10498282;27;84919;-48
2022/07/10 23:41:43;;;;;;;;;;;17.60;99.90;;;;;;10494879;27;85144;-46
2022/07/10 23:46:44;;;;;;;;;;;17.60;99.90;;;;;;10505072;27;84244;-45
2022/07/10 23:51:45;;;;;;;;;;;17.60;99.90;;;;;;10538479;27;84915;-43
2022/07/10 23:56:45;;;;;;;;;;;17.60;99.90;;;;;;10537206;27;85173;-44
